Time;durP1;ratioP1;P1;durP2;ratioP2;P2;SDS_P1;SDS_P2;PMS_P1;PMS_P2;Temp;Humidity;BMP_temperature;BMP_pressure;BME280_temperature;BME280_humidity;BME280_pressure;Samples;Min_cycle;Max_cycle;Signal;HPM_P1;HPM_P2
2023/09/05 00:05:39;;;;;;;6.68;5.97;;;15.80;99.90;;;;;;5090648;28;20508;-73
2023/09/05 00:08:05;;;;;;;7.63;5.95;;;15.70;99.90;;;;;;5090118;28;20473;-74
2023/09/05 00:10:31;;;;;;;9.32;5.90;;;15.70;99.90;;;;;;5090500;28;20024;-75
2023/09/05 00:12:56;;;;;;;8.55;5.80;;;15.60;99.90;;;;;;5090540;28;20036;-73
2023/09/05 00:15:22;;;;;;;6.20;5.38;;;15.60;99.90;;;;;;5090547;28;20493;-73
2023/09/05 00:17:47;;;;;;;7.90;5.60;;;15.50;99.90;;;;;;5090161;28;20028;-73
2023/09/05 00:20:15;;;;;;;8.77;5.95;;;15.50;99.90;;;;;;5090017;28;20060;-73
2023/09/05 00:22:42;;;;;;;7.45;5.68;;;15.50;99.90;;;;;;5089637;28;20455;-73
2023/09/05 00:25:11;;;;;;;7.38;5.60;;;15.50;99.90;;;;;;5090404;28;20033;-73
2023/09/05 00:27:37;;;;;;;6.78;5.78;;;15.50;99.90;;;;;;5089907;28;20107;-73
2023/09/05 00:30:03;;;;;;;8.48;6.40;;;15.40;99.90;;;;;;5090209;28;20052;-72
2023/09/05 00:32:28;;;;;;;8.13;6.20;;;15.40;99.90;;;;;;5090077;28;20497;-72
2023/09/05 00:34:54;;;;;;;8.82;5.75;;;15.30;99.90;;;;;;5077983;28;20056;-72
2023/09/05 00:37:23;;;;;;;7.38;5.72;;;15.20;99.90;;;;;;5076337;28;20029;-72
2023/09/05 00:39:49;;;;;;;9.60;5.85;;;15.20;99.90;;;;;;5076970;28;20042;-72
2023/09/05 00:42:16;;;;;;;7.70;6.32;;;15.20;99.90;;;;;;5076052;28;20029;-73
2023/09/05 00:44:42;;;;;;;11.35;7.07;;;15.30;99.90;;;;;;5076359;28;20060;-73
2023/09/05 00:47:11;;;;;;;8.20;6.55;;;15.30;99.90;;;;;;5076407;28;20063;-73
2023/09/05 00:49:47;;;;;;;10.57;6.53;;;15.40;99.90;;;;;;5076550;28;20033;-73
2023/09/05 00:52:13;;;;;;;7.75;6.25;;;15.40;99.90;;;;;;5076311;28;20028;-73
2023/09/05 00:54:40;;;;;;;8.55;6.75;;;15.40;99.90;;;;;;5076355;28;20060;-73
2023/09/05 00:57:07;;;;;;;8.25;5.93;;;15.40;99.90;;;;;;5076540;28;20470;-74
2023/09/05 00:59:33;;;;;;;8.32;6.00;;;15.40;99.90;;;;;;5076546;28;20050;-74
2023/09/05 01:01:58;;;;;;;9.40;5.72;;;15.50;99.90;;;;;;5075157;28;20111;-74
2023/09/05 01:04:25;;;;;;;7.45;6.40;;;15.50;99.90;;;;;;5076439;28;20028;-73
2023/09/05 01:07:30;;;;;;;6.30;5.63;;;15.50;99.90;;;;;;5075611;28;20025;-73
2023/09/05 01:10:09;;;;;;;10.20;5.90;;;15.50;99.90;;;;;;5075563;28;20033;-74
2023/09/05 01:12:35;;;;;;;6.28;5.38;;;15.60;99.90;;;;;;5075671;28;20075;-74
2023/09/05 01:15:00;;;;;;;11.20;5.55;;;15.60;99.90;;;;;;5076187;28;20060;-74
2023/09/05 01:17:26;;;;;;;9.82;5.80;;;15.50;99.90;;;;;;5076121;28;20119;-73
2023/09/05 01:19:56;;;;;;;8.88;5.95;;;15.50;99.90;;;;;;5076095;28;20058;-73
2023/09/05 01:22:35;;;;;;;6.38;4.95;;;15.40;99.90;;;;;;5075401;28;20402;-73
2023/09/05 01:25:02;;;;;;;7.60;5.65;;;15.40;99.90;;;;;;5076051;28;20033;-73
2023/09/05 01:27:28;;;;;;;9.65;6.03;;;15.40;99.90;;;;;;5075734;28;20029;-73
2023/09/05 01:29:55;;;;;;;7.70;5.72;;;15.50;99.90;;;;;;5075707;28;20031;-72
2023/09/05 01:32:20;;;;;;;7.22;5.47;;;15.40;99.90;;;;;;5075520;28;20359;-73
2023/09/05 01:34:47;;;;;;;8.10;5.50;;;15.40;99.90;;;;;;5075380;28;20174;-73
2023/09/05 01:37:15;;;;;;;6.93;5.57;;;15.40;99.90;;;;;;5075274;28;20021;-72
2023/09/05 01:39:41;;;;;;;9.98;6.00;;;15.30;99.90;;;;;;5075446;28;20021;-73
2023/09/05 01:42:07;;;;;;;10.38;5.85;;;15.40;99.90;;;;;;5075671;28;20115;-73
2023/09/05 01:44:34;;;;;;;7.90;5.40;;;15.40;99.90;;;;;;5075362;28;20547;-72
2023/09/05 01:47:00;;;;;;;6.15;5.15;;;15.30;99.90;;;;;;5074356;28;20016;-72
2023/09/05 01:49:26;;;;;;;7.20;5.35;;;15.30;99.90;;;;;;5075517;28;20029;-73
2023/09/05 01:51:52;;;;;;;7.15;5.78;;;15.20;99.90;;;;;;5074802;28;20093;-72
2023/09/05 01:54:17;;;;;;;7.45;5.13;;;15.20;99.90;;;;;;5075413;28;20107;-72
2023/09/05 01:56:43;;;;;;;9.25;5.38;;;15.00;99.90;;;;;;5075126;28;20056;-72
2023/09/05 01:59:09;;;;;;;8.75;5.70;;;15.00;99.90;;;;;;5074667;28;20020;-72
2023/09/05 02:01:34;;;;;;;6.53;5.68;;;15.00;99.90;;;;;;5074887;28;20039;-72
2023/09/05 02:04:01;;;;;;;6.90;5.68;;;15.00;99.90;;;;;;5075261;28;20024;-72
2023/09/05 02:06:26;;;;;;;12.30;6.18;;;15.00;99.90;;;;;;5074518;28;20031;-72
2023/09/05 02:08:52;;;;;;;7.07;5.43;;;15.00;99.90;;;;;;5074732;28;20374;-76
2023/09/05 02:11:18;;;;;;;5.97;5.40;;;14.80;99.90;;;;;;5075147;28;20036;-72
2023/09/05 02:13:43;;;;;;;5.55;5.03;;;14.80;99.90;;;;;;5074385;28;20035;-71
2023/09/05 02:16:09;;;;;;;7.60;5.30;;;14.70;99.90;;;;;;5073692;28;20028;-72
2023/09/05 02:18:34;;;;;;;7.43;5.65;;;14.70;99.90;;;;;;5074778;28;20032;-72
2023/09/05 02:21:01;;;;;;;6.07;5.47;;;14.70;99.90;;;;;;5074895;28;20025;-72
2023/09/05 02:23:28;;;;;;;7.95;5.53;;;14.70;99.90;;;;;;5073478;28;20080;-71
2023/09/05 02:25:58;;;;;;;7.88;5.95;;;14.70;99.90;;;;;;5074620;28;20363;-71
2023/09/05 02:28:24;;;;;;;8.88;6.05;;;14.70;99.90;;;;;;5074457;28;20024;-71
2023/09/05 02:30:50;;;;;;;9.65;6.30;;;14.60;99.90;;;;;;5074452;28;20088;-71
2023/09/05 02:33:16;;;;;;;8.73;6.20;;;14.60;99.90;;;;;;5074137;28;20024;-71
2023/09/05 02:35:42;;;;;;;8.85;5.75;;;14.60;99.90;;;;;;5073789;28;20028;-71
2023/09/05 02:38:08;;;;;;;8.13;6.72;;;14.60;99.90;;;;;;5074627;28;20086;-71
2023/09/05 02:40:34;;;;;;;9.30;6.65;;;14.60;99.90;;;;;;5074273;28;20024;-71
2023/09/05 02:43:00;;;;;;;7.38;6.60;;;14.50;99.90;;;;;;5074002;28;20466;-71
2023/09/05 02:45:26;;;;;;;7.25;5.57;;;14.50;99.90;;;;;;5074570;28;20391;-71
2023/09/05 02:47:52;;;;;;;7.78;6.38;;;14.50;99.90;;;;;;5074540;28;20025;-71
2023/09/05 02:50:18;;;;;;;6.47;5.50;;;14.50;99.90;;;;;;5074173;28;20177;-71
2023/09/05 02:52:44;;;;;;;8.00;6.60;;;14.40;99.90;;;;;;5073656;28;20028;-71
2023/09/05 02:55:09;;;;;;;7.55;5.95;;;14.40;99.90;;;;;;5073517;28;20081;-71
2023/09/05 02:57:35;;;;;;;9.77;6.97;;;14.40;99.90;;;;;;5073195;28;20068;-70
2023/09/05 03:00:00;;;;;;;9.82;6.22;;;14.40;99.90;;;;;;5073705;28;20024;-71
2023/09/05 03:02:26;;;;;;;7.95;6.70;;;14.30;99.90;;;;;;5073827;28;20093;-71
2023/09/05 03:04:53;;;;;;;14.35;6.57;;;14.30;99.90;;;;;;5073173;28;20043;-70
2023/09/05 03:07:20;;;;;;;8.27;6.65;;;14.30;99.90;;;;;;5073954;28;20024;-70
2023/09/05 03:09:45;;;;;;;8.77;6.82;;;14.30;99.90;;;;;;5073962;28;20021;-70
2023/09/05 03:12:11;;;;;;;10.50;7.07;;;14.30;99.90;;;;;;5072907;28;20031;-71
2023/09/05 03:14:37;;;;;;;10.70;7.43;;;14.40;99.90;;;;;;5073606;28;20122;-71
2023/09/05 03:17:04;;;;;;;9.93;7.18;;;14.40;99.90;;;;;;5072929;28;20028;-71
2023/09/05 03:19:30;;;;;;;10.13;6.63;;;14.50;99.90;;;;;;5072844;28;20024;-71
2023/09/05 03:21:56;;;;;;;9.23;6.70;;;14.70;99.90;;;;;;5073381;28;20162;-71
2023/09/05 03:24:24;;;;;;;6.93;6.22;;;14.50;99.90;;;;;;5073781;28;20085;-71
2023/09/05 03:26:50;;;;;;;9.27;6.03;;;14.50;99.90;;;;;;5073738;28;20048;-71
2023/09/05 03:29:16;;;;;;;8.43;6.38;;;14.40;99.90;;;;;;5074046;28;20025;-71
2023/09/05 03:31:42;;;;;;;8.00;6.35;;;14.30;99.90;;;;;;5073933;28;20530;-71
2023/09/05 03:34:08;;;;;;;7.85;5.82;;;14.30;99.90;;;;;;5073300;28;20021;-70
2023/09/05 03:36:35;;;;;;;6.93;5.90;;;14.30;99.90;;;;;;5073775;28;20032;-70
2023/09/05 03:39:01;;;;;;;7.80;6.40;;;14.30;99.90;;;;;;5073640;28;20086;-71
2023/09/05 03:41:28;;;;;;;13.60;7.00;;;14.40;99.90;;;;;;5073379;28;20025;-70
2023/09/05 03:43:54;;;;;;;11.48;6.60;;;;;;;;;;5073499;28;20017;-70
2023/09/05 03:46:20;;;;;;;8.48;6.82;;;14.20;99.90;;;;;;5073540;28;20027;-70
2023/09/05 03:48:47;;;;;;;7.68;6.63;;;14.20;99.90;;;;;;5073441;28;20557;-70
2023/09/05 03:51:12;;;;;;;11.25;7.18;;;14.00;99.90;;;;;;5073520;28;20020;-71
2023/09/05 03:53:38;;;;;;;11.77;8.35;;;14.20;99.90;;;;;;5073530;28;20051;-70
2023/09/05 03:56:04;;;;;;;11.95;7.53;;;14.20;99.90;;;;;;5073122;28;20033;-71
2023/09/05 03:58:30;;;;;;;8.02;6.47;;;14.30;99.90;;;;;;5073381;28;20028;-70
2023/09/05 04:00:57;;;;;;;9.30;7.47;;;14.20;99.90;;;;;;5073705;28;20073;-70
2023/09/05 04:03:22;;;;;;;9.55;7.53;;;14.20;99.90;;;;;;5073183;28;20531;-70
2023/09/05 04:05:48;;;;;;;9.23;7.15;;;;;;;;;;5073377;28;20063;-71
2023/09/05 04:08:14;;;;;;;8.15;7.28;;;14.10;99.90;;;;;;5073429;28;20035;-70
2023/09/05 04:10:40;;;;;;;7.78;6.97;;;14.10;99.90;;;;;;5076799;28;20036;-70
2023/09/05 04:13:06;;;;;;;13.10;7.13;;;14.00;99.90;;;;;;5077330;28;20032;-70
2023/09/05 04:15:32;;;;;;;12.15;7.75;;;14.00;99.90;;;;;;5077065;28;20032;-70
2023/09/05 04:17:57;;;;;;;13.85;7.88;;;14.10;99.90;;;;;;5076603;28;20030;-70
2023/09/05 04:20:23;;;;;;;9.77;7.53;;;14.10;99.90;;;;;;5076975;28;20035;-70
2023/09/05 04:22:49;;;;;;;12.02;8.00;;;14.10;99.90;;;;;;5076694;28;20040;-71
2023/09/05 04:25:14;;;;;;;10.80;7.70;;;13.60;99.90;;;;;;5076517;28;20021;-70
2023/09/05 04:27:40;;;;;;;10.60;7.65;;;13.90;99.90;;;;;;5076224;28;20052;-70
2023/09/05 04:30:08;;;;;;;9.07;8.02;;;14.00;99.90;;;;;;5076511;28;20079;-71
2023/09/05 04:32:34;;;;;;;13.20;9.52;;;14.00;99.90;;;;;;5077059;28;20119;-71
2023/09/05 04:35:02;;;;;;;10.52;8.30;;;14.00;99.90;;;;;;5076378;28;20111;-70
2023/09/05 04:37:28;;;;;;;9.80;8.57;;;14.20;99.90;;;;;;5076682;28;20024;-70
2023/09/05 04:39:54;;;;;;;12.77;9.20;;;14.10;99.90;;;;;;5076406;28;20064;-70
2023/09/05 04:42:21;;;;;;;13.50;8.50;;;14.10;99.90;;;;;;5076263;28;20028;-71
2023/09/05 04:44:47;;;;;;;11.63;8.90;;;14.20;99.90;;;;;;5076205;28;20031;-71
2023/09/05 04:47:23;;;;;;;14.20;9.05;;;14.10;99.90;;;;;;5075652;28;20028;-71
2023/09/05 04:49:50;;;;;;;10.27;7.82;;;14.20;99.90;;;;;;5076679;28;20028;-71
2023/09/05 04:52:17;;;;;;;13.13;8.95;;;14.20;99.90;;;;;;5076123;28;20033;-71
2023/09/05 04:54:42;;;;;;;10.60;8.60;;;14.20;99.90;;;;;;5076228;28;20090;-71
2023/09/05 04:57:10;;;;;;;13.57;8.80;;;14.10;99.90;;;;;;5075670;28;20060;-71
2023/09/05 04:59:37;;;;;;;11.52;8.70;;;14.10;99.90;;;;;;5075883;28;20125;-71
2023/09/05 05:02:04;;;;;;;10.80;8.90;;;14.10;99.90;;;;;;5076700;28;20059;-71
2023/09/05 05:04:29;;;;;;;11.55;8.40;;;14.10;99.90;;;;;;5076116;28;20020;-71
2023/09/05 05:06:56;;;;;;;10.30;7.68;;;14.10;99.90;;;;;;5075114;28;20029;-71
2023/09/05 05:09:22;;;;;;;11.18;8.30;;;14.10;99.90;;;;;;5076026;28;20039;-71
2023/09/05 05:11:47;;;;;;;11.07;8.30;;;14.10;99.90;;;;;;5075924;28;20384;-72
2023/09/05 05:14:13;;;;;;;13.60;8.38;;;14.10;99.90;;;;;;5075777;28;20108;-71
2023/09/05 05:16:38;;;;;;;11.88;9.23;;;14.10;99.90;;;;;;5076244;28;20037;-71
2023/09/05 05:19:04;;;;;;;10.38;8.45;;;14.10;99.90;;;;;;5075541;28;20032;-71
2023/09/05 05:21:30;;;;;;;11.00;8.60;;;14.20;99.90;;;;;;5074441;28;20047;-71
2023/09/05 05:23:56;;;;;;;9.80;8.60;;;14.20;99.90;;;;;;5076005;28;20028;-71
2023/09/05 05:26:23;;;;;;;12.98;8.98;;;;;;;;;;5075719;28;20024;-72
2023/09/05 05:28:48;;;;;;;11.90;9.65;;;14.30;99.90;;;;;;5075533;28;20459;-72
2023/09/05 05:31:14;;;;;;;12.73;9.25;;;14.50;99.90;;;;;;5075658;28;20025;-72
2023/09/05 05:33:40;;;;;;;14.57;9.52;;;14.60;99.90;;;;;;5075275;28;20029;-72
2023/09/05 05:36:05;;;;;;;14.18;9.68;;;13.40;99.90;;;;;;5075824;28;20043;-72
2023/09/05 05:38:31;;;;;;;11.05;9.43;;;15.10;99.90;;;;;;5075795;28;20032;-72
2023/09/05 05:40:58;;;;;;;11.90;9.18;;;14.90;99.90;;;;;;5075393;28;20054;-72
2023/09/05 05:43:27;;;;;;;12.52;9.35;;;15.00;99.90;;;;;;5075506;28;20035;-72
2023/09/05 05:45:53;;;;;;;14.55;10.70;;;15.00;99.90;;;;;;5075042;28;20052;-71
2023/09/05 05:48:19;;;;;;;12.20;8.35;;;15.30;99.90;;;;;;5075258;28;20028;-71
2023/09/05 05:50:44;;;;;;;10.60;7.10;;;15.90;99.90;;;;;;5075233;28;20029;-72
2023/09/05 05:53:10;;;;;;;10.07;6.00;;;16.60;99.90;;;;;;5075230;28;20119;-71
2023/09/05 05:55:36;;;;;;;8.35;4.90;;;;;;;;;;5074737;28;20036;-72
2023/09/05 05:58:02;;;;;;;8.75;4.20;;;19.50;99.90;;;;;;5074579;28;20033;-72
2023/09/05 06:00:29;;;;;;;8.07;4.47;;;21.50;1.00;;;;;;5074717;28;20040;-72
2023/09/05 06:02:55;;;;;;;7.57;4.75;;;;;;;;;;5074003;28;20035;-72
2023/09/05 06:05:21;;;;;;;9.05;4.25;;;23.10;27.20;;;;;;5074232;28;20016;-72
2023/09/05 06:07:48;;;;;;;5.75;3.80;;;23.70;99.90;;;;;;5074157;28;20016;-72
2023/09/05 06:10:13;;;;;;;11.15;3.70;;;24.90;99.90;;;;;;5074220;28;20506;-72
2023/09/05 06:12:39;;;;;;;7.25;3.50;;;25.70;18.70;;;;;;5074330;28;20025;-72
2023/09/05 06:15:05;;;;;;;7.55;3.75;;;26.30;75.90;;;;;;5074557;28;20040;-74
2023/09/05 06:17:31;;;;;;;6.10;3.72;;;26.80;1.00;;;;;;5074649;28;20474;-73
2023/09/05 06:19:56;;;;;;;8.35;3.65;;;26.40;1.00;;;;;;5074331;28;20093;-72
2023/09/05 06:22:22;;;;;;;10.77;3.70;;;26.50;99.90;;;;;;5073881;28;20080;-73
2023/09/05 06:24:47;;;;;;;6.95;3.28;;;27.00;99.90;;;;;;5073647;28;20027;-73
2023/09/05 06:27:13;;;;;;;3.60;2.75;;;28.00;91.30;;;;;;5074202;28;20056;-73
2023/09/05 06:29:40;;;;;;;4.60;2.85;;;;;;;;;;5074397;28;20079;-73
2023/09/05 06:32:06;;;;;;;7.47;2.58;;;28.60;1.00;;;;;;5074029;28;20179;-73
2023/09/05 06:34:32;;;;;;;4.78;2.30;;;29.00;1.00;;;;;;5074256;28;20024;-73
2023/09/05 06:36:58;;;;;;;5.25;2.85;;;29.60;1.00;;;;;;5073709;28;20029;-73
2023/09/05 06:39:23;;;;;;;6.07;2.38;;;30.60;1.00;;;;;;5073453;28;20021;-73
2023/09/05 06:41:49;;;;;;;4.10;2.60;;;30.40;1.00;;;;;;5074003;28;20028;-73
2023/09/05 06:44:15;;;;;;;3.55;2.58;;;29.30;1.00;;;;;;5073888;28;20032;-72
2023/09/05 06:46:41;;;;;;;4.53;2.83;;;28.50;27.60;;;;;;5073209;28;20032;-73
2023/09/05 06:49:06;;;;;;;6.85;2.88;;;28.20;97.50;;;;;;5073201;28;20482;-73
2023/09/05 06:51:32;;;;;;;3.80;2.50;;;29.40;1.00;;;;;;5072679;28;20088;-71
2023/09/05 06:53:59;;;;;;;5.10;2.70;;;29.80;1.00;;;;;;5072826;28;20024;-71
2023/09/05 06:56:25;;;;;;;4.95;2.40;;;30.30;1.00;;;;;;5072523;28;20470;-71
2023/09/05 06:58:51;;;;;;;7.55;2.92;;;30.80;1.00;;;;;;5072664;28;20504;-70
2023/09/05 07:01:16;;;;;;;4.32;2.20;;;29.80;1.00;;;;;;5073111;28;20032;-71
2023/09/05 07:03:42;;;;;;;6.25;3.28;;;29.30;1.00;;;;;;5073008;28;20126;-72
2023/09/05 07:06:07;;;;;;;6.95;2.92;;;29.80;1.00;;;;;;5073425;28;20025;-71
2023/09/05 07:08:33;;;;;;;10.35;3.17;;;30.00;1.00;;;;;;5073135;28;20551;-71
2023/09/05 07:10:59;;;;;;;5.47;2.88;;;30.30;99.90;;;;;;5073277;28;20386;-71
2023/09/05 07:13:25;;;;;;;10.43;2.80;;;30.50;99.90;;;;;;5072326;28;20516;-71
2023/09/05 07:15:51;;;;;;;6.90;2.75;;;30.90;99.90;;;;;;5073589;28;20038;-72
2023/09/05 07:18:17;;;;;;;5.80;2.70;;;31.40;6.00;;;;;;5072836;28;20021;-71
2023/09/05 07:20:42;;;;;;;5.13;2.83;;;32.20;1.00;;;;;;5072583;28;20031;-71
2023/09/05 07:23:08;;;;;;;6.07;2.63;;;30.70;1.00;;;;;;5072848;28;20124;-72
2023/09/05 07:25:38;;;;;;;6.60;2.80;;;30.80;4.20;;;;;;5073016;28;20505;-71
2023/09/05 07:28:04;;;;;;;6.07;2.63;;;30.80;8.10;;;;;;5073267;28;20032;-72
2023/09/05 07:30:32;;;;;;;6.95;2.42;;;30.30;27.60;;;;;;5072896;28;20070;-71
2023/09/05 07:32:59;;;;;;;7.40;2.50;;;30.70;20.50;;;;;;5072797;28;20052;-71
2023/09/05 07:35:24;;;;;;;5.10;2.50;;;30.80;13.70;;;;;;5072710;28;20541;-71
2023/09/05 07:37:51;;;;;;;5.30;2.75;;;31.00;48.60;;;;;;5073017;28;20115;-71
2023/09/05 07:40:17;;;;;;;4.88;2.83;;;31.80;41.20;;;;;;5072883;28;20032;-71
2023/09/05 07:42:43;;;;;;;4.57;2.47;;;32.60;99.90;;;;;;5073788;28;20028;-71
2023/09/05 07:45:10;;;;;;;4.97;2.45;;;32.30;99.90;;;;;;5076702;28;20028;-71
2023/09/05 07:47:35;;;;;;;5.32;2.10;;;32.80;99.90;;;;;;5077284;28;20039;-71
2023/09/05 07:50:01;;;;;;;4.07;1.90;;;32.20;99.90;;;;;;5077127;28;20020;-71
2023/09/05 07:52:27;;;;;;;5.90;2.45;;;31.60;99.90;;;;;;5076529;28;20024;-72
2023/09/05 07:54:53;;;;;;;4.75;2.38;;;31.70;59.90;;;;;;5076591;28;20482;-75
2023/09/05 07:57:18;;;;;;;4.03;2.22;;;31.90;76.00;;;;;;5076421;28;20529;-74
2023/09/05 07:59:44;;;;;;;2.63;2.08;;;32.20;44.60;;;;;;5076112;28;20596;-72
2023/09/05 08:02:11;;;;;;;3.63;2.25;;;32.90;6.50;;;;;;5076494;28;20033;-70
2023/09/05 08:04:38;;;;;;;5.65;2.10;;;33.70;99.90;;;;;;5077282;28;20116;-71
2023/09/05 08:07:06;;;;;;;3.78;2.05;;;33.20;99.90;;;;;;5076970;28;20024;-71
2023/09/05 08:09:32;;;;;;;4.50;2.42;;;33.90;1.00;;;;;;5076411;28;20020;-71
2023/09/05 08:11:58;;;;;;;5.28;2.25;;;33.60;1.00;;;;;;5076796;28;20024;-71
2023/09/05 08:14:24;;;;;;;5.47;2.78;;;33.40;1.00;;;;;;5076833;28;20020;-71
2023/09/05 08:16:49;;;;;;;4.65;2.40;;;33.10;1.00;;;;;;5075813;28;20029;-71
2023/09/05 08:19:15;;;;;;;2.45;2.00;;;32.90;1.00;;;;;;5075764;28;20037;-72
2023/09/05 08:21:41;;;;;;;2.08;1.90;;;33.40;1.00;;;;;;5075287;28;20048;-70
2023/09/05 08:24:09;;;;;;;5.95;2.22;;;32.80;1.00;;;;;;5075655;28;20028;-70
2023/09/05 08:26:36;;;;;;;1.83;1.73;;;33.30;1.00;;;;;;5075889;28;20566;-71
2023/09/05 08:29:03;;;;;;;2.90;1.92;;;33.10;1.00;;;;;;5075607;28;20025;-70
2023/09/05 08:31:30;;;;;;;4.07;2.15;;;33.40;1.00;;;;;;5075773;28;20386;-70
2023/09/05 08:33:56;;;;;;;3.25;1.95;;;33.60;64.50;;;;;;5076226;28;20474;-70
2023/09/05 08:36:21;;;;;;;6.43;2.00;;;34.30;53.90;;;;;;5076770;28;20040;-70
2023/09/05 08:38:47;;;;;;;3.67;2.03;;;34.40;55.20;;;;;;5076508;28;20063;-71
2023/09/05 08:41:13;;;;;;;3.38;2.28;;;33.40;8.80;;;;;;5075409;28;20486;-70
2023/09/05 08:43:38;;;;;;;3.35;2.08;;;33.20;1.00;;;;;;5075611;28;20035;-71
2023/09/05 08:46:04;;;;;;;5.30;2.20;;;33.30;1.00;;;;;;5075974;28;20021;-70
2023/09/05 08:48:31;;;;;;;2.70;2.08;;;32.50;1.00;;;;;;5075839;28;20032;-70
2023/09/05 08:50:59;;;;;;;3.08;1.90;;;33.10;1.00;;;;;;5075926;28;20478;-71
2023/09/05 08:53:35;;;;;;;2.67;1.85;;;33.50;1.00;;;;;;5075348;28;20474;-70
2023/09/05 08:56:01;;;;;;;5.03;2.05;;;33.60;1.00;;;;;;5074913;28;20039;-72
2023/09/05 08:58:27;;;;;;;3.53;1.83;;;33.50;1.00;;;;;;5076361;28;20025;-72
2023/09/05 09:00:53;;;;;;;3.30;2.05;;;34.40;2.40;;;;;;5075225;28;20436;-70
2023/09/05 09:03:19;;;;;;;2.40;2.20;;;34.30;1.00;;;;;;5075314;28;20029;-72
2023/09/05 09:05:46;;;;;;;5.70;2.30;;;33.90;1.00;;;;;;5076445;28;20151;-71
2023/09/05 09:08:13;;;;;;;6.35;2.08;;;33.60;1.00;;;;;;5076323;28;20021;-71
2023/09/05 09:10:38;;;;;;;3.55;1.88;;;33.80;1.00;;;;;;5075769;28;20028;-72
2023/09/05 09:13:19;;;;;;;3.85;1.67;;;34.40;1.00;;;;;;5075410;28;20032;-76
2023/09/05 09:15:46;;;;;;;4.63;2.08;;;34.30;8.80;;;;;;5073359;28;20059;-78
2023/09/05 09:18:14;;;;;;;2.90;2.00;;;34.20;17.10;;;;;;5073497;28;20316;-76
2023/09/05 09:20:43;;;;;;;6.65;2.17;;;33.90;15.10;;;;;;5071835;28;20386;-77
2023/09/05 09:23:09;;;;;;;3.60;1.90;;;33.00;99.90;;;;;;5072016;28;20040;-76
2023/09/05 09:25:35;;;;;;;2.78;1.90;;;33.10;99.90;;;;;;5072828;28;20024;-77
2023/09/05 09:28:01;;;;;;;3.08;1.90;;;;;;;;;;5072747;28;20021;-77
2023/09/05 09:30:29;;;;;;;5.68;2.15;;;34.30;1.00;;;;;;5073317;28;20439;-77
2023/09/05 09:32:55;;;;;;;3.08;2.00;;;34.10;1.00;;;;;;5075087;28;20028;-76
2023/09/05 09:35:22;;;;;;;1.63;1.50;;;;;;;;;;5075894;28;20036;-77
2023/09/05 09:37:49;;;;;;;7.38;1.83;;;;;;;;;;5075531;28;20146;-77
2023/09/05 09:40:16;;;;;;;4.35;1.98;;;33.40;1.00;;;;;;5074509;28;20028;-77
2023/09/05 09:42:45;;;;;;;6.13;2.10;;;33.40;1.00;;;;;;5074581;28;20086;-78
2023/09/05 09:45:11;;;;;;;3.58;2.00;;;33.20;1.00;;;;;;5074604;28;20052;-78
2023/09/05 09:47:45;;;;;;;3.25;2.03;;;33.70;1.00;;;;;;5075315;28;20025;-78
2023/09/05 09:50:12;;;;;;;3.50;1.98;;;33.20;1.00;;;;;;5075219;28;20047;-78
2023/09/05 09:52:44;;;;;;;2.65;1.77;;;33.80;1.00;;;;;;5075526;28;20032;-78
2023/09/05 09:55:13;;;;;;;3.10;2.00;;;34.20;1.00;;;;;;5075184;28;20498;-77
2023/09/05 09:57:45;;;;;;;2.85;1.60;;;33.90;1.00;;;;;;5074697;28;20024;-78
2023/09/05 10:00:18;;;;;;;3.75;1.63;;;34.00;1.00;;;;;;5074784;28;20024;-78
2023/09/05 10:02:46;;;;;;;3.95;2.00;;;33.80;1.00;;;;;;5074551;28;20033;-78
2023/09/05 10:05:15;;;;;;;3.70;1.65;;;33.50;1.00;;;;;;5075127;28;20028;-78
2023/09/05 10:07:43;;;;;;;2.50;1.67;;;34.10;1.00;;;;;;5073329;28;20165;-78
2023/09/05 10:10:15;;;;;;;4.60;1.80;;;34.60;1.70;;;;;;5075015;28;20025;-78
2023/09/05 10:12:43;;;;;;;2.00;1.50;;;33.80;20.60;;;;;;5074772;28;20029;-79
2023/09/05 10:15:13;;;;;;;3.53;1.50;;;33.70;32.60;;;;;;5074892;28;20430;-78
2023/09/05 10:17:41;;;;;;;1.83;1.48;;;33.80;1.00;;;;;;5074847;28;20036;-78
2023/09/05 10:20:08;;;;;;;1.40;1.30;;;33.80;1.00;;;;;;5075145;28;20060;-78
2023/09/05 10:22:39;;;;;;;2.22;1.73;;;33.90;10.30;;;;;;5074261;28;20498;-78
2023/09/05 10:25:07;;;;;;;3.78;1.65;;;33.90;44.50;;;;;;5074555;28;20467;-78
2023/09/05 10:27:32;;;;;;;2.25;1.70;;;33.80;94.50;;;;;;5075012;28;20025;-78
2023/09/05 10:29:59;;;;;;;2.45;1.50;;;34.20;99.90;;;;;;5074583;28;20131;-78
2023/09/05 10:32:25;;;;;;;1.83;1.50;;;34.70;88.30;;;;;;5074581;28;20101;-78
2023/09/05 10:34:55;;;;;;;4.63;1.60;;;34.60;91.80;;;;;;5074679;28;20119;-79
2023/09/05 10:37:39;;;;;;;3.38;1.83;;;34.40;81.30;;;;;;5074941;28;20039;-78
2023/09/05 10:40:07;;;;;;;3.08;1.75;;;33.90;1.00;;;;;;5074476;28;20028;-78
2023/09/05 10:42:35;;;;;;;3.88;2.00;;;33.70;1.00;;;;;;5073556;28;20055;-78
2023/09/05 10:45:24;;;;;;;3.15;1.70;;;33.40;1.00;;;;;;5073890;28;20052;-77
2023/09/05 10:47:50;;;;;;;2.40;1.70;;;33.70;1.00;;;;;;5070873;28;20112;-78
2023/09/05 10:50:22;;;;;;;1.90;1.73;;;34.20;1.00;;;;;;5074064;28;20036;-78
2023/09/05 10:53:06;;;;;;;3.75;1.50;;;33.20;1.00;;;;;;5074169;28;20531;-77
2023/09/05 10:55:39;;;;;;;3.90;1.80;;;32.60;1.00;;;;;;5073313;28;20039;-77
2023/09/05 10:58:51;;;;;;;5.30;1.67;;;32.40;1.00;;;;;;5073968;28;20056;-77
2023/09/05 11:04:18;;;;;;;3.00;1.67;;;32.10;1.00;;;;;;5071408;28;20452;-78
2023/09/05 11:06:54;;;;;;;2.22;1.60;;;31.90;1.00;;;;;;5070838;28;20060;-78
2023/09/05 11:09:20;;;;;;;1.95;1.75;;;32.00;1.00;;;;;;5070702;28;20032;-78
2023/09/05 11:11:46;;;;;;;4.90;1.90;;;32.00;1.00;;;;;;5071061;28;20028;-78
2023/09/05 11:14:11;;;;;;;4.63;1.90;;;32.10;1.00;;;;;;5070790;28;20024;-78
2023/09/05 11:16:47;;;;;;;2.85;1.70;;;31.80;1.00;;;;;;5070690;28;20091;-79
2023/09/05 11:19:27;;;;;;;2.20;2.00;;;31.60;1.00;;;;;;5070825;28;20028;-78
2023/09/05 11:22:22;;;;;;;3.95;1.52;;;31.40;1.00;;;;;;5070121;28;20390;-78
2023/09/05 11:24:50;;;;;;;3.38;1.90;;;31.40;1.00;;;;;;5070914;28;20074;-78
2023/09/05 11:27:19;;;;;;;2.80;2.60;;;31.70;1.00;;;;;;5070386;28;20033;-78
2023/09/05 11:29:45;;;;;;;2.45;1.60;;;32.20;1.00;;;;;;5070431;28;20021;-77
2023/09/05 11:32:14;;;;;;;2.88;1.63;;;31.90;1.00;;;;;;5071093;28;20033;-77
2023/09/05 11:34:42;;;;;;;3.25;1.73;;;31.50;1.00;;;;;;5070872;28;20056;-77
2023/09/05 11:37:08;;;;;;;3.20;1.40;;;31.50;1.00;;;;;;5071078;28;20056;-77
2023/09/05 11:39:34;;;;;;;2.92;1.30;;;31.60;1.00;;;;;;5070922;28;20567;-78
2023/09/05 11:42:00;;;;;;;1.23;1.13;;;31.40;1.00;;;;;;5070265;28;20025;-78
2023/09/05 11:44:40;;;;;;;2.38;1.25;;;31.10;1.00;;;;;;5070465;28;20048;-78
2023/09/05 11:47:07;;;;;;;1.50;1.40;;;30.90;1.00;;;;;;5070158;28;20028;-78
2023/09/05 11:49:34;;;;;;;1.88;1.33;;;31.30;1.00;;;;;;5070121;28;20037;-77
2023/09/05 11:52:01;;;;;;;3.35;1.20;;;31.20;1.00;;;;;;5069683;28;20384;-78
2023/09/05 11:54:29;;;;;;;2.55;1.50;;;31.00;1.00;;;;;;5067458;28;20517;-77
2023/09/05 11:56:56;;;;;;;4.88;1.50;;;31.00;1.00;;;;;;5067546;28;20029;-77
2023/09/05 11:59:23;;;;;;;1.85;1.27;;;31.00;1.00;;;;;;5061648;28;20017;-77
2023/09/05 12:01:51;;;;;;;2.30;1.30;;;30.90;1.00;;;;;;5060504;28;20029;-77
2023/09/05 12:04:16;;;;;;;1.63;1.45;;;31.00;1.00;;;;;;5065457;28;20036;-78
2023/09/05 12:06:47;;;;;;;2.03;1.35;;;31.30;1.00;;;;;;5054992;28;20029;-77
2023/09/05 12:09:12;;;;;;;3.47;1.30;;;31.20;1.00;;;;;;5061958;28;20445;-76
2023/09/05 12:11:38;;;;;;;2.10;1.48;;;31.40;1.00;;;;;;5068330;28;20024;-76
2023/09/05 12:14:05;;;;;;;2.17;1.58;;;31.40;1.00;;;;;;5062940;28;20111;-77
2023/09/05 12:16:31;;;;;;;2.40;1.45;;;31.20;1.00;;;;;;5036603;28;20033;-77
2023/09/05 12:19:00;;;;;;;2.72;1.20;;;31.10;1.00;;;;;;5016525;28;20120;-77
2023/09/05 12:21:38;;;;;;;1.27;1.17;;;31.40;1.00;;;;;;5033362;28;20061;-77
2023/09/05 12:24:21;;;;;;;1.50;1.30;;;31.60;1.00;;;;;;5035813;28;20479;-78
2023/09/05 12:26:49;;;;;;;3.85;1.40;;;31.40;1.00;;;;;;5035024;28;20431;-77
2023/09/05 12:29:21;;;;;;;2.30;1.20;;;31.50;1.00;;;;;;5016651;28;20464;-77
2023/09/05 12:31:48;;;;;;;1.07;0.97;;;31.20;1.00;;;;;;5034901;28;20063;-77
2023/09/05 12:34:13;;;;;;;2.50;1.23;;;31.40;1.00;;;;;;5034577;28;20021;-77
2023/09/05 12:36:39;;;;;;;1.67;1.25;;;31.40;1.00;;;;;;5033350;28;20033;-76
2023/09/05 12:39:05;;;;;;;1.52;1.00;;;31.40;1.00;;;;;;5024865;28;20043;-77
2023/09/05 12:41:31;;;;;;;1.13;1.05;;;31.20;1.00;;;;;;5027048;28;20026;-77
2023/09/05 12:43:58;;;;;;;1.83;1.08;;;31.40;1.00;;;;;;5035195;28;20084;-77
2023/09/05 12:46:24;;;;;;;1.58;1.25;;;31.20;1.00;;;;;;5034875;28;20014;-78
2023/09/05 12:48:53;;;;;;;3.45;1.17;;;31.10;1.00;;;;;;5034113;28;20033;-78
2023/09/05 12:51:19;;;;;;;3.63;1.60;;;30.90;1.00;;;;;;5034387;28;20021;-77
2023/09/05 12:53:46;;;;;;;1.80;1.20;;;30.80;1.00;;;;;;5034462;28;20033;-77
2023/09/05 12:56:12;;;;;;;3.35;1.48;;;30.60;1.00;;;;;;5034972;28;20486;-77
2023/09/05 12:58:38;;;;;;;2.35;1.15;;;30.80;1.00;;;;;;5035852;28;20025;-78
2023/09/05 13:01:03;;;;;;;3.88;1.00;;;30.80;1.00;;;;;;5033752;28;20070;-78